Woodbine, Georgia
Current Conditions -  °F | °C
As of 4:53 AM on Tuesday 21 Oct 2014 (Local Time) from KSSI Reporting Station
Clear Clear  
Wind Chill: 64°   Ceiling: Unl
Heat Index: 64°   Visibility: 10mi
Dew Point: 64°   Wind: 5mph
Humidity: 100%   Direction: 290°WNW
Pressure: 29.94"   Gusts: NA
Location:  30.96°N, 81.72°W
Report Text: KSSI 210853Z AUTO 29004KT 10SM CLR 18/18 A2994 RMK AO2 SLP138 T01780178 56008
Loading
Personal Weather Stations






























Interactive Weather Map
Tropical Storm Tracking
New forecast layout! Learn more

10-Day Weather Forecast

Advertisements
Track Severe Weather on mobile